Main page
METAR-TAF:

Airports :

London-Gatwick, England

Gatwick Airport

latitude: 51-09N, longitude: 000-11W, elevation: 62 m

Current weather observation

The report was made 27 minutes ago, at 09:20 UTC
Wind 10 kt from the Northeast, varying between North and East
Temperature 15°C
Humidity 55%
Pressure 1021 hPa
Visibility 10 km or more
Few clouds at a height of 3200 ft

METAR: EGKK 240920Z 04010KT 010V080 9999 FEW032 15/06 Q1021

Time: 10:47 (09:47 UTC)

Forecast

The report was made 4 hours and 51 minutes ago, at 04:56 UTC
Forecast valid from 24 at 06 UTC to 25 at 12 UTC
Wind 8 kt from the Northeast
Visibility 10 km or more
Few clouds at a height of 3000 ft
Probability 30% :
Temporary
from 24 at 06 UTC to 24 at 08 UTC
Visibility: 8000 m
Broken clouds at a height of 1000 ft
Probability 40% :
Temporary
from 25 at 02 UTC to 25 at 09 UTC
Visibility: 8000 m
Broken clouds at a height of 1200 ft

TAF: EGKK 240456Z 2406/2512 04008KT 9999 FEW030 PROB30 TEMPO 2406/2408 8000 BKN010 PROB40 TEMPO 2502/2509 8000 BKN012

METAR-TAF

Weather observations and forecasts of more than 4000 airports (METAR and TAF reports).

The available stations are represented by yellow and red dots on the map.

Hover mouse over dot to see the name of the station.

Then click to see weather observations and forecasts.

To change the map : click on the green buttons with a black cross to zoom in, on the green button with a dash to zoom out, or on the green arrows for adjacent maps.


METAR-TAF: